Minden, LA

3:49 AM CDT on April 27, 2017 (GMT -0500)
Minden

Weather History for KMNE - March, 2013

Change the Weather History Date:

Sunday, March 3, 2013

  Actual Average (KBAD) Record (KBAD)
Temperature  
Mean Temperature 45 °F -  
Max Temperature 62 °F 60 °F 77 °F (2004)
Min Temperature 28 °F 42 °F 21 °F (2002)
Degree Days  
Heating Degree Days 20    
Moisture  
Dew Point 26 °F    
Average Humidity 54    
Maximum Humidity 91    
Minimum Humidity 23    
Precipitation  
Precipitation 0.00 in - - ()
Sea Level Pressure  
Sea Level Pressure 30.16 in    
Wind  
Wind Speed 3 mph (SSE)    
Max Wind Speed 12 mph    
Max Gust Speed 16 mph    
Visibility 10 miles    
Events      
Averages and records for this station are not official NWS values.
T = Trace of Precipitation, MM = Missing Value Source: NWS Daily Summary

Daily Weather History Graph

Daily Weather History Graph

Search for Another Location

Airport or City:

Trip Planner

Search our weather history database for the weather conditions in past years. The results will help you decide how hot, cold, wet, or windy it might be!

Date:

Astronomy

Mar. 03, 2013 Rise Set
Actual Time 6:38 AM CST 6:12 PM CST
Civil Twilight 6:13 AM CST 6:37 PM CST
Nautical Twilight 5:45 AM CST 7:05 PM CST
Astronomical Twilight 5:16 AM CST 7:34 PM CST
Moon No Moon Rise 10:15 AM CST (3/3)
Length of Visible Light 12h 23m
Length of Day
11h 34m
Waning Gibbous, 63% of the Moon is Illuminated
Mar 3
Waning Gibbous
Mar 4
Last Quarter
Mar 11
New
Mar 19
First Quarter
Mar 27
Full

Hourly Weather History & Observations

Time (CST) Temp. Windchill Dew Point Humidity Pressure Visibility Wind Dir Wind Speed Gust Speed Precip Events Conditions
12:15 AM 29.7 °F - 25.9 °F 86% 30.27 in 10.0 mi Calm Calm - N/A   Clear
12:35 AM 29.1 °F - 25.0 °F 85% 30.26 in 10.0 mi Calm Calm - N/A   Clear
12:55 AM 29.3 °F - 25.9 °F 87% 30.26 in 10.0 mi Calm Calm - N/A   Clear
1:15 AM 29.3 °F - 25.9 °F 87% 30.26 in 10.0 mi Calm Calm - N/A   Clear
1:55 AM 29.1 °F - 26.4 °F 90% 30.25 in 10.0 mi Calm Calm - N/A   Clear
2:15 AM 28.2 °F - 25.7 °F 90% 30.24 in 10.0 mi Calm Calm - N/A   Clear
2:35 AM 28.4 °F - 26.1 °F 91% 30.24 in 10.0 mi Calm Calm - N/A   Clear
2:55 AM 28.2 °F - 25.5 °F 90% 30.25 in 10.0 mi Calm Calm - N/A   Clear
3:15 AM 28.6 °F 24.8 °F 25.3 °F 88% 30.25 in 10.0 mi East 3.5 mph - N/A   Clear
3:35 AM 29.5 °F - 25.3 °F 85% 30.25 in 10.0 mi Calm Calm - N/A   Clear
3:55 AM 29.8 °F - 25.0 °F 82% 30.24 in 10.0 mi Calm Calm - N/A   Clear
4:15 AM 29.7 °F - 24.8 °F 82% 30.25 in 10.0 mi Calm Calm - N/A   Clear
4:35 AM 28.8 °F - 24.8 °F 85% 30.26 in 10.0 mi Calm Calm - N/A   Clear
4:55 AM 29.3 °F 25.6 °F 25.3 °F 85% 30.26 in 10.0 mi East 3.5 mph - N/A   Clear
5:35 AM 29.8 °F 24.9 °F 25.5 °F 84% 30.27 in 10.0 mi ESE 4.6 mph - N/A   Clear
5:55 AM 28.6 °F 24.8 °F 24.8 °F 86% 30.27 in 10.0 mi ESE 3.5 mph - N/A   Clear
6:15 AM 29.7 °F 24.7 °F 25.3 °F 84% 30.26 in 10.0 mi ESE 4.6 mph - N/A   Clear
6:35 AM 28.9 °F - 25.2 °F 86% 30.26 in 10.0 mi Calm Calm - N/A   Clear
6:55 AM 29.7 °F 24.7 °F 25.7 °F 85% 30.25 in 10.0 mi ESE 4.6 mph - N/A   Clear
7:15 AM 31.1 °F 27.7 °F 26.6 °F 83% 30.25 in 10.0 mi SE 3.5 mph - N/A   Clear
7:35 AM 33.1 °F 26.1 °F 27.3 °F 79% 30.26 in 10.0 mi SE 8.1 mph - N/A   Clear
7:55 AM 34.7 °F 30.6 °F 27.9 °F 76% 30.26 in 10.0 mi SE 4.6 mph - N/A   Clear
8:15 AM 36.0 °F 30.3 °F 28.0 °F 73% 30.27 in 10.0 mi SSE 6.9 mph - N/A   Clear
8:35 AM 37.2 °F 31.9 °F 28.8 °F 71% 30.27 in 10.0 mi South 6.9 mph - N/A   Clear
8:55 AM 39.2 °F 35.0 °F 29.1 °F 67% 30.27 in 10.0 mi SE 5.8 mph - N/A   Clear
9:15 AM 41.2 °F 38.2 °F 28.6 °F 61% 30.27 in 10.0 mi SSE 4.6 mph - N/A   Clear
9:55 AM 45.1 °F 42.8 °F 28.0 °F 51% 30.27 in 10.0 mi SSW 4.6 mph - N/A   Clear
10:15 AM 46.9 °F - 26.4 °F 45% 30.27 in 10.0 mi SE 5.8 mph - N/A   Clear
10:55 AM 49.8 °F - 23.2 °F 35% 30.25 in 10.0 mi WSW 8.1 mph - N/A   Clear
11:15 AM 50.9 °F - 22.6 °F 33% 30.24 in 10.0 mi SSW 5.8 mph - N/A   Clear
11:35 AM 52.7 °F - 23.0 °F 31% 30.23 in 10.0 mi South 4.6 mph - N/A   Clear
11:55 AM 53.6 °F - 20.7 °F 28% 30.21 in 10.0 mi SSW 6.9 mph - N/A   Clear
12:15 PM 54.9 °F - 17.4 °F 23% 30.20 in 10.0 mi SSW 9.2 mph - N/A   Clear
12:35 PM 55.4 °F - 21.0 °F 26% 30.18 in 10.0 mi SW 5.8 mph - N/A   Clear
12:55 PM 56.1 °F - 20.5 °F 25% 30.17 in 10.0 mi WSW 4.6 mph - N/A   Clear
1:15 PM 57.6 °F - 20.3 °F 24% 30.15 in 10.0 mi SSW 5.8 mph - N/A   Clear
1:35 PM 58.5 °F - 23.4 °F 26% 30.13 in 10.0 mi South 4.6 mph - N/A   Clear
1:55 PM 60.8 °F - 24.6 °F 25% 30.12 in 10.0 mi SSE 5.8 mph - N/A   Clear
2:15 PM 60.3 °F - 24.3 °F 25% 30.10 in 10.0 mi SSW 5.8 mph - N/A   Clear
3:15 PM 62.6 °F - 25.5 °F 24% 30.08 in 10.0 mi SSE 5.8 mph - N/A   Clear
3:55 PM 62.1 °F - 25.9 °F 25% 30.07 in 10.0 mi South 11.5 mph - N/A   Clear
4:35 PM 62.4 °F - 27.7 °F 27% 30.05 in 10.0 mi SSE 6.9 mph - N/A   Clear
4:55 PM 61.9 °F - 27.1 °F 27% 30.04 in 10.0 mi SE 8.1 mph - N/A   Clear
5:15 PM 61.3 °F - 26.8 °F 27% 30.04 in 10.0 mi SSE 8.1 mph - N/A   Clear
5:35 PM 60.4 °F - 26.6 °F 28% 30.04 in 10.0 mi SSE 8.1 mph - N/A   Clear
5:55 PM 59.0 °F - 27.1 °F 30% 30.04 in 10.0 mi SE 8.1 mph - N/A   Clear
6:15 PM 56.3 °F - 27.9 °F 34% 30.04 in 10.0 mi SE 6.9 mph - N/A   Clear
6:35 PM 55.6 °F - 27.9 °F 35% 30.03 in 10.0 mi SE 6.9 mph - N/A   Clear
6:55 PM 54.5 °F - 28.2 °F 36% 30.03 in 10.0 mi SE 6.9 mph - N/A   Clear
7:15 PM 53.8 °F - 28.2 °F 37% 30.03 in 10.0 mi SE 5.8 mph - N/A   Clear
7:35 PM 53.2 °F - 28.4 °F 38% 30.03 in 10.0 mi SE 5.8 mph - N/A   Clear
7:55 PM 53.8 °F - 28.2 °F 37% 30.03 in 10.0 mi SE 8.1 mph - N/A   Clear
8:15 PM 53.6 °F - 28.8 °F 39% 30.02 in 10.0 mi SE 8.1 mph - N/A   Clear
8:35 PM 53.4 °F - 29.1 °F 39% 30.01 in 10.0 mi SE 10.4 mph - N/A   Clear
8:55 PM 54.7 °F - 28.4 °F 36% 30.01 in 10.0 mi SSE 8.1 mph 16.1 mph N/A   Clear
9:15 PM 53.4 °F - 29.1 °F 39% 30.01 in 10.0 mi SE 6.9 mph - N/A   Clear
9:35 PM 52.7 °F - 29.7 °F 41% 30.01 in 10.0 mi SSE 8.1 mph - N/A   Clear
9:55 PM 52.2 °F - 29.8 °F 42% 30.01 in 10.0 mi SSE 5.8 mph - N/A   Clear
10:15 PM 51.8 °F - 30.2 °F 44% 30.02 in 10.0 mi SSE 4.6 mph - N/A   Clear
10:35 PM 51.6 °F - 30.9 °F 45% 30.02 in 10.0 mi SSE 5.8 mph - N/A   Clear
10:55 PM 51.3 °F - 31.5 °F 47% 30.02 in 10.0 mi SSE 6.9 mph - N/A   Clear
11:15 PM 51.1 °F - 32.0 °F 48% 30.02 in 10.0 mi SSE 5.8 mph - N/A   Clear
11:35 PM 50.9 °F - 32.0 °F 48% 30.01 in 10.0 mi SSE 8.1 mph - N/A   Clear
11:55 PM 50.5 °F - 32.9 °F 51% 30.00 in 10.0 mi SSE 8.1 mph - N/A   Clear